sensor_id;sensor_type;location;lat;lon;timestamp;pressure;altitude;pressure_sealevel;temperature;humidity
13594;BME280;6449;47.666;9.160;2024-02-15T00:00:36;97597.78;;;7.52;100.00
13594;BME280;6449;47.666;9.160;2024-02-15T00:05:31;97591.44;;;7.56;100.00
13594;BME280;6449;47.666;9.160;2024-02-15T00:10:27;97586.22;;;7.56;100.00
13594;BME280;6449;47.666;9.160;2024-02-15T00:15:25;97585.94;;;7.45;100.00
13594;BME280;6449;47.666;9.160;2024-02-15T00:20:26;97592.28;;;7.41;100.00
13594;BME280;6449;47.666;9.160;2024-02-15T00:25:20;97596.41;;;7.27;100.00
13594;BME280;6449;47.666;9.160;2024-02-15T00:30:14;97599.81;;;7.12;100.00
13594;BME280;6449;47.666;9.160;2024-02-15T00:35:09;97596.13;;;7.16;100.00
13594;BME280;6449;47.666;9.160;2024-02-15T00:40:06;97594.44;;;7.15;100.00
13594;BME280;6449;47.666;9.160;2024-02-15T00:45:01;97594.50;;;7.14;100.00
13594;BME280;6449;47.666;9.160;2024-02-15T00:49:55;97603.03;;;7.00;100.00
13594;BME280;6449;47.666;9.160;2024-02-15T00:54:49;97594.16;;;7.04;100.00
13594;BME280;6449;47.666;9.160;2024-02-15T00:59:44;97588.91;;;6.87;100.00
13594;BME280;6449;47.666;9.160;2024-02-15T01:04:39;97596.50;;;6.56;100.00
13594;BME280;6449;47.666;9.160;2024-02-15T01:09:32;97599.78;;;6.60;100.00
13594;BME280;6449;47.666;9.160;2024-02-15T01:14:26;97601.22;;;6.66;100.00
13594;BME280;6449;47.666;9.160;2024-02-15T01:19:28;97605.25;;;6.73;100.00
13594;BME280;6449;47.666;9.160;2024-02-15T01:24:22;97602.56;;;6.74;100.00
13594;BME280;6449;47.666;9.160;2024-02-15T01:29:18;97600.56;;;6.62;100.00
13594;BME280;6449;47.666;9.160;2024-02-15T01:34:12;97603.06;;;6.46;100.00
13594;BME280;6449;47.666;9.160;2024-02-15T01:39:08;97605.25;;;6.37;100.00
13594;BME280;6449;47.666;9.160;2024-02-15T01:44:05;97603.50;;;6.37;100.00
13594;BME280;6449;47.666;9.160;2024-02-15T01:49:02;97597.88;;;6.27;100.00
13594;BME280;6449;47.666;9.160;2024-02-15T01:53:57;97593.25;;;6.15;100.00
13594;BME280;6449;47.666;9.160;2024-02-15T01:58:54;97591.38;;;6.19;100.00
13594;BME280;6449;47.666;9.160;2024-02-15T02:03:47;97593.13;;;6.18;100.00
13594;BME280;6449;47.666;9.160;2024-02-15T02:08:41;97591.16;;;6.23;100.00
13594;BME280;6449;47.666;9.160;2024-02-15T02:13:35;97584.81;;;6.10;100.00
13594;BME280;6449;47.666;9.160;2024-02-15T02:18:30;97577.59;;;5.98;100.00
13594;BME280;6449;47.666;9.160;2024-02-15T02:23:29;97565.97;;;6.05;100.00
13594;BME280;6449;47.666;9.160;2024-02-15T02:28:26;97561.53;;;6.07;100.00
13594;BME280;6449;47.666;9.160;2024-02-15T02:33:23;97571.16;;;6.05;100.00
13594;BME280;6449;47.666;9.160;2024-02-15T02:38:21;97561.53;;;5.88;100.00
13594;BME280;6449;47.666;9.160;2024-02-15T02:43:14;97562.09;;;5.76;100.00
13594;BME280;6449;47.666;9.160;2024-02-15T02:48:12;97558.28;;;5.64;100.00
13594;BME280;6449;47.666;9.160;2024-02-15T02:53:14;97554.84;;;5.83;100.00
13594;BME280;6449;47.666;9.160;2024-02-15T02:58:08;97550.00;;;5.94;100.00
13594;BME280;6449;47.666;9.160;2024-02-15T03:03:02;97551.13;;;5.88;100.00
13594;BME280;6449;47.666;9.160;2024-02-15T03:07:58;97547.63;;;5.70;100.00
13594;BME280;6449;47.666;9.160;2024-02-15T03:12:52;97548.44;;;5.52;100.00
13594;BME280;6449;47.666;9.160;2024-02-15T03:17:50;97546.66;;;5.52;100.00
13594;BME280;6449;47.666;9.160;2024-02-15T03:22:44;97541.44;;;5.54;100.00
13594;BME280;6449;47.666;9.160;2024-02-15T03:27:39;97549.75;;;5.42;100.00
13594;BME280;6449;47.666;9.160;2024-02-15T03:32:34;97549.38;;;5.31;100.00
13594;BME280;6449;47.666;9.160;2024-02-15T03:37:27;97550.22;;;5.31;100.00
13594;BME280;6449;47.666;9.160;2024-02-15T03:42:21;97547.94;;;5.44;100.00
13594;BME280;6449;47.666;9.160;2024-02-15T03:47:19;97552.22;;;5.45;100.00
13594;BME280;6449;47.666;9.160;2024-02-15T03:52:13;97552.88;;;5.50;100.00
13594;BME280;6449;47.666;9.160;2024-02-15T03:57:07;97555.09;;;5.39;100.00
13594;BME280;6449;47.666;9.160;2024-02-15T04:02:06;97553.47;;;5.36;100.00
13594;BME280;6449;47.666;9.160;2024-02-15T04:07:06;97563.31;;;5.09;100.00
13594;BME280;6449;47.666;9.160;2024-02-15T04:11:59;97564.25;;;5.08;100.00
13594;BME280;6449;47.666;9.160;2024-02-15T04:16:54;97561.25;;;4.97;100.00
13594;BME280;6449;47.666;9.160;2024-02-15T04:21:53;97562.38;;;4.91;100.00
13594;BME280;6449;47.666;9.160;2024-02-15T04:26:49;97557.88;;;4.95;100.00
13594;BME280;6449;47.666;9.160;2024-02-15T04:31:46;97555.72;;;5.05;100.00
13594;BME280;6449;47.666;9.160;2024-02-15T04:36:43;97549.41;;;5.10;100.00
13594;BME280;6449;47.666;9.160;2024-02-15T04:41:37;97548.09;;;5.02;100.00
13594;BME280;6449;47.666;9.160;2024-02-15T04:46:34;97539.09;;;5.09;100.00
13594;BME280;6449;47.666;9.160;2024-02-15T04:51:30;97542.53;;;5.09;100.00
13594;BME280;6449;47.666;9.160;2024-02-15T04:56:24;97545.34;;;5.05;100.00
13594;BME280;6449;47.666;9.160;2024-02-15T05:01:20;97539.03;;;4.90;100.00
13594;BME280;6449;47.666;9.160;2024-02-15T05:06:15;97546.44;;;4.79;100.00
13594;BME280;6449;47.666;9.160;2024-02-15T05:11:12;97537.63;;;4.83;100.00
13594;BME280;6449;47.666;9.160;2024-02-15T05:16:10;97538.19;;;4.89;100.00
13594;BME280;6449;47.666;9.160;2024-02-15T05:21:05;97539.09;;;4.88;100.00
13594;BME280;6449;47.666;9.160;2024-02-15T05:26:05;97543.81;;;4.80;100.00
13594;BME280;6449;47.666;9.160;2024-02-15T05:31:15;97536.66;;;4.85;100.00
13594;BME280;6449;47.666;9.160;2024-02-15T05:36:11;97538.91;;;4.72;100.00
13594;BME280;6449;47.666;9.160;2024-02-15T05:41:06;97535.16;;;4.59;100.00
13594;BME280;6449;47.666;9.160;2024-02-15T05:46:04;97541.72;;;4.47;100.00
13594;BME280;6449;47.666;9.160;2024-02-15T05:50:58;97530.78;;;4.39;100.00
13594;BME280;6449;47.666;9.160;2024-02-15T05:55:54;97537.72;;;4.39;100.00
13594;BME280;6449;47.666;9.160;2024-02-15T06:00:51;97531.44;;;4.44;100.00
13594;BME280;6449;47.666;9.160;2024-02-15T06:05:46;97534.16;;;4.19;100.00
13594;BME280;6449;47.666;9.160;2024-02-15T06:10:40;97531.00;;;4.13;100.00
13594;BME280;6449;47.666;9.160;2024-02-15T06:15:34;97533.81;;;4.29;100.00
13594;BME280;6449;47.666;9.160;2024-02-15T06:20:29;97533.19;;;4.44;100.00
13594;BME280;6449;47.666;9.160;2024-02-15T06:25:23;97537.94;;;4.55;100.00
13594;BME280;6449;47.666;9.160;2024-02-15T06:30:17;97538.19;;;4.49;100.00
13594;BME280;6449;47.666;9.160;2024-02-15T06:35:29;97531.66;;;4.60;100.00
13594;BME280;6449;47.666;9.160;2024-02-15T06:40:42;97542.38;;;4.31;100.00
13594;BME280;6449;47.666;9.160;2024-02-15T06:45:36;97541.47;;;4.32;100.00
13594;BME280;6449;47.666;9.160;2024-02-15T06:50:34;97544.84;;;4.34;100.00
13594;BME280;6449;47.666;9.160;2024-02-15T06:55:29;97541.38;;;4.13;100.00
13594;BME280;6449;47.666;9.160;2024-02-15T07:00:26;97538.00;;;4.11;100.00
13594;BME280;6449;47.666;9.160;2024-02-15T07:05:22;97530.00;;;4.15;100.00
13594;BME280;6449;47.666;9.160;2024-02-15T07:10:17;97534.75;;;4.48;100.00
13594;BME280;6449;47.666;9.160;2024-02-15T07:15:11;97535.78;;;4.44;100.00
13594;BME280;6449;47.666;9.160;2024-02-15T07:20:27;97544.75;;;4.37;100.00
13594;BME280;6449;47.666;9.160;2024-02-15T07:25:22;97539.41;;;4.40;100.00
13594;BME280;6449;47.666;9.160;2024-02-15T07:30:18;97539.69;;;4.54;100.00
13594;BME280;6449;47.666;9.160;2024-02-15T07:35:16;97529.06;;;4.81;100.00
13594;BME280;6449;47.666;9.160;2024-02-15T07:40:14;97520.84;;;5.10;100.00
13594;BME280;6449;47.666;9.160;2024-02-15T07:45:11;97526.06;;;5.29;100.00
13594;BME280;6449;47.666;9.160;2024-02-15T07:50:05;97516.38;;;5.51;100.00
13594;BME280;6449;47.666;9.160;2024-02-15T07:54:59;97512.94;;;5.70;100.00
13594;BME280;6449;47.666;9.160;2024-02-15T07:59:54;97495.34;;;5.75;100.00
13594;BME280;6449;47.666;9.160;2024-02-15T08:04:49;97493.94;;;5.87;100.00
13594;BME280;6449;47.666;9.160;2024-02-15T08:09:44;97487.56;;;5.94;100.00
13594;BME280;6449;47.666;9.160;2024-02-15T08:14:37;97479.25;;;6.04;100.00
13594;BME280;6449;47.666;9.160;2024-02-15T08:19:34;97463.41;;;6.09;100.00
13594;BME280;6449;47.666;9.160;2024-02-15T08:24:36;97448.81;;;6.24;100.00
13594;BME280;6449;47.666;9.160;2024-02-15T08:29:38;97440.91;;;6.43;100.00
13594;BME280;6449;47.666;9.160;2024-02-15T08:35:00;97432.31;;;6.58;100.00
13594;BME280;6449;47.666;9.160;2024-02-15T08:39:58;97422.78;;;6.74;100.00
13594;BME280;6449;47.666;9.160;2024-02-15T08:44:55;97418.28;;;6.94;100.00
13594;BME280;6449;47.666;9.160;2024-02-15T08:49:48;97412.53;;;7.36;100.00
13594;BME280;6449;47.666;9.160;2024-02-15T08:54:44;97403.88;;;7.51;100.00
13594;BME280;6449;47.666;9.160;2024-02-15T08:59:40;97413.28;;;7.54;100.00
13594;BME280;6449;47.666;9.160;2024-02-15T09:04:35;97415.13;;;7.83;100.00
13594;BME280;6449;47.666;9.160;2024-02-15T09:09:31;97415.59;;;7.90;100.00
13594;BME280;6449;47.666;9.160;2024-02-15T09:14:25;97408.84;;;8.02;100.00
13594;BME280;6449;47.666;9.160;2024-02-15T09:19:21;97409.63;;;8.18;100.00
13594;BME280;6449;47.666;9.160;2024-02-15T09:24:18;97402.38;;;8.23;100.00
13594;BME280;6449;47.666;9.160;2024-02-15T09:29:13;97398.84;;;8.54;100.00
13594;BME280;6449;47.666;9.160;2024-02-15T09:34:07;97390.63;;;8.60;100.00
13594;BME280;6449;47.666;9.160;2024-02-15T09:39:02;97379.97;;;8.78;100.00
13594;BME280;6449;47.666;9.160;2024-02-15T09:43:58;97373.19;;;8.89;100.00
13594;BME280;6449;47.666;9.160;2024-02-15T09:48:56;97375.31;;;8.97;100.00
13594;BME280;6449;47.666;9.160;2024-02-15T09:53:55;97372.03;;;9.22;100.00
13594;BME280;6449;47.666;9.160;2024-02-15T09:58:51;97367.34;;;9.27;100.00
13594;BME280;6449;47.666;9.160;2024-02-15T10:03:46;97369.03;;;9.28;100.00
13594;BME280;6449;47.666;9.160;2024-02-15T10:08:45;97365.66;;;9.53;100.00
13594;BME280;6449;47.666;9.160;2024-02-15T10:13:41;97373.03;;;9.61;100.00
13594;BME280;6449;47.666;9.160;2024-02-15T10:18:42;97356.41;;;9.75;100.00
13594;BME280;6449;47.666;9.160;2024-02-15T10:23:36;97351.69;;;9.67;100.00
13594;BME280;6449;47.666;9.160;2024-02-15T10:28:33;97345.72;;;9.65;100.00
13594;BME280;6449;47.666;9.160;2024-02-15T10:33:29;97345.03;;;9.76;100.00
13594;BME280;6449;47.666;9.160;2024-02-15T10:38:25;97341.22;;;9.67;100.00
13594;BME280;6449;47.666;9.160;2024-02-15T10:43:20;97344.19;;;9.75;100.00
13594;BME280;6449;47.666;9.160;2024-02-15T10:48:14;97332.84;;;9.75;100.00
13594;BME280;6449;47.666;9.160;2024-02-15T10:53:21;97332.91;;;9.87;100.00
13594;BME280;6449;47.666;9.160;2024-02-15T10:58:20;97323.50;;;9.58;100.00
13594;BME280;6449;47.666;9.160;2024-02-15T11:03:25;97317.13;;;9.35;100.00
13594;BME280;6449;47.666;9.160;2024-02-15T11:08:19;97303.63;;;9.28;100.00
13594;BME280;6449;47.666;9.160;2024-02-15T11:13:12;97299.47;;;9.38;100.00
13594;BME280;6449;47.666;9.160;2024-02-15T11:18:08;97285.69;;;9.49;100.00
13594;BME280;6449;47.666;9.160;2024-02-15T11:23:03;97281.06;;;9.53;100.00
13594;BME280;6449;47.666;9.160;2024-02-15T11:27:57;97274.47;;;9.47;100.00
13594;BME280;6449;47.666;9.160;2024-02-15T11:32:51;97268.94;;;9.52;100.00
13594;BME280;6449;47.666;9.160;2024-02-15T11:37:58;97258.09;;;9.70;100.00
13594;BME280;6449;47.666;9.160;2024-02-15T11:42:58;97245.75;;;9.85;100.00
13594;BME280;6449;47.666;9.160;2024-02-15T11:47:56;97244.50;;;10.16;100.00
13594;BME280;6449;47.666;9.160;2024-02-15T11:52:51;97238.25;;;10.32;100.00
13594;BME280;6449;47.666;9.160;2024-02-15T11:57:57;97241.78;;;10.56;100.00
13594;BME280;6449;47.666;9.160;2024-02-15T12:02:59;97243.28;;;10.84;100.00
13594;BME280;6449;47.666;9.160;2024-02-15T12:08:11;97233.41;;;10.88;100.00
13594;BME280;6449;47.666;9.160;2024-02-15T12:13:23;97235.50;;;11.19;100.00
13594;BME280;6449;47.666;9.160;2024-02-15T12:18:34;97223.59;;;11.26;100.00
13594;BME280;6449;47.666;9.160;2024-02-15T12:23:38;97214.34;;;11.45;100.00
13594;BME280;6449;47.666;9.160;2024-02-15T12:28:34;97207.91;;;11.73;100.00
13594;BME280;6449;47.666;9.160;2024-02-15T12:33:28;97203.47;;;11.73;100.00
13594;BME280;6449;47.666;9.160;2024-02-15T12:38:21;97196.91;;;11.79;100.00
13594;BME280;6449;47.666;9.160;2024-02-15T12:43:18;97191.72;;;11.90;100.00
13594;BME280;6449;47.666;9.160;2024-02-15T12:48:15;97180.50;;;12.11;100.00
13594;BME280;6449;47.666;9.160;2024-02-15T12:53:11;97169.50;;;12.28;100.00
13594;BME280;6449;47.666;9.160;2024-02-15T12:58:12;97170.00;;;12.33;100.00
13594;BME280;6449;47.666;9.160;2024-02-15T13:03:09;97158.41;;;12.47;100.00
13594;BME280;6449;47.666;9.160;2024-02-15T13:08:05;97145.47;;;12.55;100.00
13594;BME280;6449;47.666;9.160;2024-02-15T13:13:08;97132.91;;;12.58;100.00
13594;BME280;6449;47.666;9.160;2024-02-15T13:18:04;97130.25;;;12.70;100.00
13594;BME280;6449;47.666;9.160;2024-02-15T13:22:59;97123.75;;;12.85;100.00
13594;BME280;6449;47.666;9.160;2024-02-15T13:27:56;97111.06;;;12.90;100.00
13594;BME280;6449;47.666;9.160;2024-02-15T13:32:51;97096.09;;;12.91;100.00
13594;BME280;6449;47.666;9.160;2024-02-15T13:37:47;97088.72;;;12.84;100.00
13594;BME280;6449;47.666;9.160;2024-02-15T13:42:43;97083.03;;;13.00;100.00
13594;BME280;6449;47.666;9.160;2024-02-15T13:47:45;97085.53;;;13.02;100.00
13594;BME280;6449;47.666;9.160;2024-02-15T13:52:42;97082.34;;;12.87;100.00
13594;BME280;6449;47.666;9.160;2024-02-15T13:57:37;97069.19;;;12.87;100.00
13594;BME280;6449;47.666;9.160;2024-02-15T14:02:31;97067.03;;;12.92;100.00
13594;BME280;6449;47.666;9.160;2024-02-15T14:07:28;97073.88;;;12.83;100.00
13594;BME280;6449;47.666;9.160;2024-02-15T14:12:21;97062.94;;;12.67;100.00
13594;BME280;6449;47.666;9.160;2024-02-15T14:17:17;97070.72;;;12.69;100.00
13594;BME280;6449;47.666;9.160;2024-02-15T14:22:12;97066.53;;;12.66;100.00
13594;BME280;6449;47.666;9.160;2024-02-15T14:27:09;97061.47;;;12.42;100.00
13594;BME280;6449;47.666;9.160;2024-02-15T14:32:06;97063.75;;;12.36;100.00
13594;BME280;6449;47.666;9.160;2024-02-15T14:37:20;97061.50;;;12.31;100.00
13594;BME280;6449;47.666;9.160;2024-02-15T14:47:17;97057.31;;;12.28;100.00
13594;BME280;6449;47.666;9.160;2024-02-15T14:52:14;97056.25;;;12.31;100.00
13594;BME280;6449;47.666;9.160;2024-02-15T14:57:07;97059.47;;;12.23;100.00
13594;BME280;6449;47.666;9.160;2024-02-15T15:02:01;97044.78;;;12.21;100.00
13594;BME280;6449;47.666;9.160;2024-02-15T15:07:05;97047.66;;;12.18;100.00
13594;BME280;6449;47.666;9.160;2024-02-15T15:12:16;97048.75;;;12.15;100.00
13594;BME280;6449;47.666;9.160;2024-02-15T15:17:27;97043.84;;;12.11;100.00
13594;BME280;6449;47.666;9.160;2024-02-15T15:22:23;97050.78;;;12.12;100.00
13594;BME280;6449;47.666;9.160;2024-02-15T15:27:19;97041.00;;;12.02;100.00
13594;BME280;6449;47.666;9.160;2024-02-15T15:32:13;97043.03;;;11.99;100.00
13594;BME280;6449;47.666;9.160;2024-02-15T15:37:07;97043.63;;;11.91;100.00
13594;BME280;6449;47.666;9.160;2024-02-15T15:42:02;97044.00;;;11.87;100.00
13594;BME280;6449;47.666;9.160;2024-02-15T15:46:59;97043.84;;;11.77;100.00
13594;BME280;6449;47.666;9.160;2024-02-15T15:51:53;97041.13;;;11.67;100.00
13594;BME280;6449;47.666;9.160;2024-02-15T15:56:47;97033.25;;;11.56;100.00
13594;BME280;6449;47.666;9.160;2024-02-15T16:01:51;97036.44;;;11.48;100.00
13594;BME280;6449;47.666;9.160;2024-02-15T16:06:46;97030.50;;;11.46;100.00
13594;BME280;6449;47.666;9.160;2024-02-15T16:11:41;97043.47;;;11.37;100.00
13594;BME280;6449;47.666;9.160;2024-02-15T16:16:34;97029.88;;;11.20;100.00
13594;BME280;6449;47.666;9.160;2024-02-15T16:21:29;97029.56;;;11.01;100.00
13594;BME280;6449;47.666;9.160;2024-02-15T16:26:23;97022.03;;;10.85;100.00
13594;BME280;6449;47.666;9.160;2024-02-15T16:31:18;97024.84;;;10.71;100.00
13594;BME280;6449;47.666;9.160;2024-02-15T16:36:12;97013.59;;;10.58;100.00
13594;BME280;6449;47.666;9.160;2024-02-15T16:41:10;97007.47;;;10.46;100.00
13594;BME280;6449;47.666;9.160;2024-02-15T16:46:04;97004.69;;;10.36;100.00
13594;BME280;6449;47.666;9.160;2024-02-15T16:51:07;97009.75;;;10.27;100.00
13594;BME280;6449;47.666;9.160;2024-02-15T16:56:01;97009.34;;;10.20;100.00
13594;BME280;6449;47.666;9.160;2024-02-15T17:00:56;97012.28;;;10.15;100.00
13594;BME280;6449;47.666;9.160;2024-02-15T17:05:52;97017.03;;;10.10;100.00
13594;BME280;6449;47.666;9.160;2024-02-15T17:10:46;97016.63;;;10.04;100.00
13594;BME280;6449;47.666;9.160;2024-02-15T17:15:40;97017.69;;;10.01;100.00
13594;BME280;6449;47.666;9.160;2024-02-15T17:20:35;97017.28;;;9.94;100.00
13594;BME280;6449;47.666;9.160;2024-02-15T17:25:29;97018.88;;;9.84;100.00
13594;BME280;6449;47.666;9.160;2024-02-15T17:30:25;97022.44;;;9.83;100.00
13594;BME280;6449;47.666;9.160;2024-02-15T17:35:19;97015.75;;;9.79;100.00
13594;BME280;6449;47.666;9.160;2024-02-15T17:40:15;97008.22;;;9.75;100.00
13594;BME280;6449;47.666;9.160;2024-02-15T17:45:11;97012.75;;;9.73;100.00
13594;BME280;6449;47.666;9.160;2024-02-15T17:50:11;97014.13;;;9.65;100.00
13594;BME280;6449;47.666;9.160;2024-02-15T17:55:07;97012.53;;;9.63;100.00
13594;BME280;6449;47.666;9.160;2024-02-15T18:00:07;97025.22;;;9.56;100.00
13594;BME280;6449;47.666;9.160;2024-02-15T18:05:05;97017.69;;;9.52;100.00
13594;BME280;6449;47.666;9.160;2024-02-15T18:10:00;97019.91;;;9.45;100.00
13594;BME280;6449;47.666;9.160;2024-02-15T18:14:55;97011.75;;;9.37;100.00
13594;BME280;6449;47.666;9.160;2024-02-15T18:19:50;97016.13;;;9.36;100.00
13594;BME280;6449;47.666;9.160;2024-02-15T18:24:45;97017.50;;;9.29;100.00
13594;BME280;6449;47.666;9.160;2024-02-15T18:29:42;97013.53;;;9.24;100.00
13594;BME280;6449;47.666;9.160;2024-02-15T18:34:37;97005.56;;;9.25;100.00
13594;BME280;6449;47.666;9.160;2024-02-15T18:39:31;97001.41;;;9.23;100.00
13594;BME280;6449;47.666;9.160;2024-02-15T18:44:25;97002.97;;;9.12;100.00
13594;BME280;6449;47.666;9.160;2024-02-15T18:49:22;96993.66;;;9.08;100.00
13594;BME280;6449;47.666;9.160;2024-02-15T18:54:27;96991.34;;;8.91;100.00
13594;BME280;6449;47.666;9.160;2024-02-15T18:59:24;96977.47;;;8.90;100.00
13594;BME280;6449;47.666;9.160;2024-02-15T19:04:21;96976.63;;;8.90;100.00
13594;BME280;6449;47.666;9.160;2024-02-15T19:09:15;96972.22;;;8.90;100.00
13594;BME280;6449;47.666;9.160;2024-02-15T19:14:15;96959.56;;;8.97;100.00
13594;BME280;6449;47.666;9.160;2024-02-15T19:19:11;96976.94;;;8.85;100.00
13594;BME280;6449;47.666;9.160;2024-02-15T19:24:08;96984.22;;;8.68;100.00
13594;BME280;6449;47.666;9.160;2024-02-15T19:29:05;96986.88;;;8.40;100.00
13594;BME280;6449;47.666;9.160;2024-02-15T19:33:59;96987.53;;;8.44;100.00
13594;BME280;6449;47.666;9.160;2024-02-15T19:38:55;96982.94;;;8.48;100.00
13594;BME280;6449;47.666;9.160;2024-02-15T19:43:51;96989.31;;;8.29;100.00
13594;BME280;6449;47.666;9.160;2024-02-15T19:48:45;96997.31;;;8.40;100.00
13594;BME280;6449;47.666;9.160;2024-02-15T19:53:44;96999.03;;;8.27;100.00
13594;BME280;6449;47.666;9.160;2024-02-15T19:58:40;97005.22;;;8.26;100.00
13594;BME280;6449;47.666;9.160;2024-02-15T20:03:35;96995.38;;;8.30;100.00
13594;BME280;6449;47.666;9.160;2024-02-15T20:08:29;96981.88;;;8.37;100.00
13594;BME280;6449;47.666;9.160;2024-02-15T20:13:25;96990.44;;;8.25;100.00
13594;BME280;6449;47.666;9.160;2024-02-15T20:18:20;96984.50;;;8.23;100.00
13594;BME280;6449;47.666;9.160;2024-02-15T20:23:14;96981.72;;;8.26;100.00
13594;BME280;6449;47.666;9.160;2024-02-15T20:28:08;96990.47;;;8.52;100.00
13594;BME280;6449;47.666;9.160;2024-02-15T20:33:02;96987.66;;;8.28;100.00
13594;BME280;6449;47.666;9.160;2024-02-15T20:38:05;96989.22;;;8.31;100.00
13594;BME280;6449;47.666;9.160;2024-02-15T20:43:01;96982.13;;;8.33;100.00
13594;BME280;6449;47.666;9.160;2024-02-15T20:47:55;96981.19;;;8.34;100.00
13594;BME280;6449;47.666;9.160;2024-02-15T20:52:48;96975.84;;;8.35;100.00
13594;BME280;6449;47.666;9.160;2024-02-15T20:57:44;96978.75;;;8.45;100.00
13594;BME280;6449;47.666;9.160;2024-02-15T21:02:40;96984.38;;;8.39;100.00
13594;BME280;6449;47.666;9.160;2024-02-15T21:07:34;96980.34;;;8.21;100.00
13594;BME280;6449;47.666;9.160;2024-02-15T21:12:28;96975.00;;;8.22;100.00
13594;BME280;6449;47.666;9.160;2024-02-15T21:17:23;96980.34;;;8.21;100.00
13594;BME280;6449;47.666;9.160;2024-02-15T21:22:17;96984.66;;;8.07;100.00
13594;BME280;6449;47.666;9.160;2024-02-15T21:27:11;96987.78;;;8.00;100.00
13594;BME280;6449;47.666;9.160;2024-02-15T21:32:05;96984.88;;;8.04;100.00
13594;BME280;6449;47.666;9.160;2024-02-15T21:37:08;96985.94;;;8.14;100.00
13594;BME280;6449;47.666;9.160;2024-02-15T21:42:06;96988.09;;;8.08;100.00
13594;BME280;6449;47.666;9.160;2024-02-15T21:47:03;96979.53;;;8.06;100.00
13594;BME280;6449;47.666;9.160;2024-02-15T21:51:57;96971.84;;;8.17;100.00
13594;BME280;6449;47.666;9.160;2024-02-15T21:56:55;96970.81;;;8.20;100.00
13594;BME280;6449;47.666;9.160;2024-02-15T22:01:48;96975.94;;;8.21;100.00
13594;BME280;6449;47.666;9.160;2024-02-15T22:06:45;96970.19;;;8.16;100.00
13594;BME280;6449;47.666;9.160;2024-02-15T22:11:40;96971.34;;;7.98;100.00
13594;BME280;6449;47.666;9.160;2024-02-15T22:16:38;96972.28;;;7.97;100.00
13594;BME280;6449;47.666;9.160;2024-02-15T22:21:34;96972.50;;;7.94;100.00
13594;BME280;6449;47.666;9.160;2024-02-15T22:26:27;96977.66;;;7.81;100.00
13594;BME280;6449;47.666;9.160;2024-02-15T22:31:22;96976.63;;;7.83;100.00
13594;BME280;6449;47.666;9.160;2024-02-15T22:36:22;96979.81;;;7.74;100.00
13594;BME280;6449;47.666;9.160;2024-02-15T22:41:16;96970.50;;;7.70;100.00
13594;BME280;6449;47.666;9.160;2024-02-15T22:46:10;96972.72;;;7.76;100.00
13594;BME280;6449;47.666;9.160;2024-02-15T22:51:04;96967.34;;;7.65;100.00
13594;BME280;6449;47.666;9.160;2024-02-15T22:55:59;96970.72;;;7.67;100.00
13594;BME280;6449;47.666;9.160;2024-02-15T23:00:53;96954.44;;;7.76;100.00
13594;BME280;6449;47.666;9.160;2024-02-15T23:05:47;96959.81;;;7.87;100.00
13594;BME280;6449;47.666;9.160;2024-02-15T23:10:45;96960.50;;;7.77;100.00
13594;BME280;6449;47.666;9.160;2024-02-15T23:15:40;96955.22;;;7.78;100.00
13594;BME280;6449;47.666;9.160;2024-02-15T23:20:34;96945.22;;;7.85;100.00
13594;BME280;6449;47.666;9.160;2024-02-15T23:25:30;96947.25;;;7.94;100.00
13594;BME280;6449;47.666;9.160;2024-02-15T23:30:25;96947.31;;;7.93;100.00
13594;BME280;6449;47.666;9.160;2024-02-15T23:35:20;96944.53;;;7.96;100.00
13594;BME280;6449;47.666;9.160;2024-02-15T23:40:22;96942.63;;;7.98;100.00
13594;BME280;6449;47.666;9.160;2024-02-15T23:45:19;96951.69;;;7.92;100.00
13594;BME280;6449;47.666;9.160;2024-02-15T23:50:16;96953.34;;;7.80;100.00
13594;BME280;6449;47.666;9.160;2024-02-15T23:55:15;96963.03;;;7.78;100.00
